METARs

lähialueen METAR Raportit

 

EFUT - Utti, Kouvola, FINLAND
Etäisyys asemasta: KA 0,7mi, 1km
Päivitetty: 26-07-2021 03:50
Selkeää
Selkeää
 Tuulen suunta LO
Tuuli: LO 2 mph , 4 km/h
Lämpötila: 61°F , 16°C
Kastepiste: 50°F , 10°C
Kosteus: 68%
Ilmanpaine: 30.09 inHg , 1019 hPa
Yhteenveto: Selkeää
Näkyvyys: yli 7 miles , 10 km
2021/07/26 00:50 EFUT 260050Z AUTO 22002KT CAVOK 16/10 Q1019
EFLP - Lappeenranta, FINLAND
Etäisyys asemasta: I 42mi, 67km
Päivitetty: 26-07-2021 03:50
Selkeää
Selkeää
 Tuulen suunta ELO
Tuuli: ELO 2 mph , 4 km/h
Lämpötila: 55°F , 13°C
Kastepiste: 50°F , 10°C
Kosteus: 82%
Ilmanpaine: 30.09 inHg , 1019 hPa
Yhteenveto: Selkeää
Näkyvyys: yli 7 miles , 10 km
2021/07/26 00:50 EFLP 260050Z AUTO 21002KT CAVOK 13/10 Q1019

Metar display script from Saratoga-Weather.org

Page generated in 1.09 seconds.